Time;durP1;ratioP1;P1;durP2;ratioP2;P2;SDS_P1;SDS_P2;PMS_P1;PMS_P2;Temp;Humidity;BMP_temperature;BMP_pressure;BME280_temperature;BME280_humidity;BME280_pressure;Samples;Min_cycle;Max_cycle;Signal;HPM_P1;HPM_P2
2022/10/01 00:12:34;;;;;;;;;0.00;0.00;;;;;;;;6298662;22;29053;-96
2022/10/01 00:15:08;;;;;;;;;0.00;0.00;;;;;;;;6261454;22;27942;-96
2022/10/01 00:17:37;;;;;;;;;0.00;0.00;;;;;;;;6287700;22;30249;-95
2022/10/01 00:20:03;;;;;;;;;0.00;0.00;;;;;;;;6287532;22;29120;-95
2022/10/01 00:22:35;;;;;;;;;0.00;0.00;;;;;;;;6285262;22;27783;-96
2022/10/01 00:25:00;;;;;;;;;0.00;0.00;;;;;;;;6309450;22;27789;-96
2022/10/01 00:27:26;;;;;;;;;0.00;0.00;;;;;;;;6278035;22;30813;-96
2022/10/01 00:29:51;;;;;;;;;0.00;0.00;;;;;;;;6279257;22;28690;-96
2022/10/01 00:32:17;;;;;;;;;0.00;0.00;;;;;;;;6279314;22;28322;-96
2022/10/01 06:24:29;;;;;;;;;0.00;0.00;;;;;;;;6321198;22;28831;31
2022/10/01 06:26:54;;;;;;;;;0.00;0.00;;;;;;;;6207098;22;30484;-90
2022/10/01 06:29:19;;;;;;;;;0.00;0.00;;;;;;;;6203553;22;28583;-90
2022/10/01 06:31:59;;;;;;;;;0.00;0.00;;;;;;;;5087139;27;28449;-85
2022/10/01 06:34:25;;;;;;;;;0.00;0.00;;;;;;;;5087063;28;28469;-85
2022/10/01 06:36:50;;;;;;;;;0.00;0.00;;;;;;;;5087687;28;28500;-87
2022/10/01 06:39:15;;;;;;;;;0.00;0.00;;;;;;;;5086999;28;28473;-89
2022/10/01 06:41:42;;;;;;;;;0.00;0.00;;;;;;;;5078374;28;28437;-88
2022/10/01 06:44:07;;;;;;;;;0.00;0.00;;;;;;;;5066518;28;28523;-88
2022/10/01 06:46:32;;;;;;;;;0.00;0.00;;;;;;;;5066100;28;28587;-88
2022/10/01 06:48:58;;;;;;;;;0.00;0.00;;;;;;;;5071017;28;28470;-87
2022/10/01 06:52:47;;;;;;;;;0.00;0.00;;;;;;;;5078397;28;29430;-88
2022/10/01 06:54:09;;;;;;;;;0.00;0.00;;;;;;;;5045879;28;28545;-88
2022/10/01 06:56:34;;;;;;;;;0.00;0.00;;;;;;;;5057242;28;28642;-90
2022/10/01 06:58:59;;;;;;;;;0.00;0.00;;;;;;;;5068937;28;28504;-90
2022/10/01 07:01:25;;;;;;;;;0.00;0.00;;;;;;;;5074779;27;29963;-92
2022/10/01 07:03:51;;;;;;;;;0.00;0.00;;;;;;;;5065973;28;28586;-88
2022/10/01 07:06:16;;;;;;;;;0.00;0.00;;;;;;;;5065436;28;28526;-89
2022/10/01 07:08:42;;;;;;;;;0.00;0.00;;;;;;;;5063726;28;28636;-89
2022/10/01 07:11:07;;;;;;;;;0.00;0.00;;;;;;;;5064762;28;29230;-89
2022/10/01 07:13:32;;;;;;;;;0.00;0.00;;;;;;;;5064748;28;29043;-90
2022/10/01 07:15:57;;;;;;;;;0.00;0.00;;;;;;;;5065158;28;28654;-88
2022/10/01 07:18:23;;;;;;;;;0.00;0.00;;;;;;;;5066649;28;28562;-88
2022/10/01 07:20:48;;;;;;;;;0.00;0.00;;;;;;;;5074688;28;30299;-95
2022/10/01 07:23:14;;;;;;;;;0.00;0.00;;;;;;;;5076894;28;28730;-94
2022/10/01 07:25:40;;;;;;;;;0.00;0.00;;;;;;;;5079866;28;27886;-93
2022/10/01 07:28:07;;;;;;;;;0.00;0.00;;;;;;;;5080127;28;28314;-95
2022/10/01 07:33:04;;;;;;;;;0.00;0.00;;;;;;;;5030891;28;27797;-96
2022/10/01 07:35:29;;;;;;;;;0.00;0.00;;;;;;;;5266252;22;28573;-96
2022/10/01 07:37:54;;;;;;;;;0.00;0.00;;;;;;;;5064488;28;27910;-96
2022/10/01 07:40:20;;;;;;;;;0.00;0.00;;;;;;;;5057695;28;30371;-96
2022/10/01 07:42:53;;;;;;;;;0.00;0.00;;;;;;;;5071545;28;28245;-96
2022/10/01 07:45:18;;;;;;;;;0.00;0.00;;;;;;;;5049150;28;27877;-93
2022/10/01 07:47:50;;;;;;;;;0.00;0.00;;;;;;;;5040463;28;28593;-96
2022/10/01 07:50:15;;;;;;;;;0.00;0.00;;;;;;;;5033651;28;31308;-96
2022/10/01 07:52:40;;;;;;;;;0.00;0.00;;;;;;;;5021139;28;28371;-96
2022/10/01 07:55:09;;;;;;;;;0.00;0.00;;;;;;;;5038528;28;28420;-96
2022/10/01 07:57:35;;;;;;;;;0.00;0.00;;;;;;;;5044009;28;28371;-96
2022/10/01 08:00:00;;;;;;;;;0.00;0.00;;;;;;;;5049122;28;29828;-96
2022/10/01 08:02:25;;;;;;;;;0.00;0.00;;;;;;;;5047622;28;27891;-96
2022/10/01 08:07:35;;;;;;;;;0.00;0.00;;;;;;;;5035043;28;28486;-95
2022/10/01 08:10:03;;;;;;;;;0.00;0.00;;;;;;;;5343133;22;29249;-96
2022/10/01 08:12:29;;;;;;;;;0.00;0.00;;;;;;;;5081642;28;28620;-96
2022/10/01 08:14:54;;;;;;;;;0.00;0.00;;;;;;;;5063757;28;28453;-96
2022/10/01 08:17:20;;;;;;;;;0.00;0.00;;;;;;;;5071486;28;28368;-96
2022/10/01 08:19:45;;;;;;;;;0.00;0.00;;;;;;;;5062214;28;28186;-96
2022/10/01 08:22:11;;;;;;;;;0.00;0.00;;;;;;;;5069997;28;27978;-96
2022/10/01 08:24:36;;;;;;;;;0.00;0.00;;;;;;;;5063332;28;27860;-96
2022/10/01 08:27:01;;;;;;;;;0.00;0.00;;;;;;;;5050204;28;28924;-96
2022/10/01 08:29:26;;;;;;;;;0.00;0.00;;;;;;;;5042015;28;28501;-96
2022/10/01 08:31:52;;;;;;;;;0.00;0.00;;;;;;;;5055872;28;28583;-96
2022/10/01 08:34:17;;;;;;;;;0.00;0.00;;;;;;;;5061328;28;27796;-96
2022/10/01 08:36:42;;;;;;;;;0.00;0.00;;;;;;;;5045720;28;28599;-94
2022/10/01 08:39:08;;;;;;;;;0.00;0.00;;;;;;;;5046468;28;29989;-95
2022/10/01 08:41:57;;;;;;;;;0.00;0.00;;;;;;;;5074366;28;27899;-93
2022/10/01 08:44:29;;;;;;;;;0.00;0.00;;;;;;;;5053365;28;28379;-93
2022/10/01 08:46:59;;;;;;;;;0.00;0.00;;;;;;;;5067092;28;27854;-94
2022/10/01 08:49:37;;;;;;;;;0.00;0.00;;;;;;;;5077343;28;28746;-96
2022/10/01 08:54:38;;;;;;;;;0.00;0.00;;;;;;;;5041118;28;28509;-96
2022/10/01 08:57:05;;;;;;;;;0.00;0.00;;;;;;;;5043711;28;27854;-95
2022/10/01 08:59:45;;;;;;;;;0.00;0.00;;;;;;;;5039980;28;31211;-93
2022/10/01 09:02:16;;;;;;;;;0.00;0.00;;;;;;;;5046228;28;29355;-90
2022/10/01 09:04:42;;;;;;;;;0.00;0.00;;;;;;;;5027662;28;28540;-89
2022/10/01 09:07:33;;;;;;;;;0.00;0.00;;;;;;;;5024980;28;28568;-90
2022/10/01 09:12:47;;;;;;;;;0.00;0.00;;;;;;;;5730051;22;29171;-96
2022/10/01 09:15:20;;;;;;;;;0.00;0.00;;;;;;;;5031365;28;27876;-96
2022/10/01 09:17:45;;;;;;;;;0.00;0.00;;;;;;;;5535417;22;29032;-96
2022/10/01 09:22:52;;;;;;;;;0.00;0.00;;;;;;;;5099442;22;27992;-96
2022/10/01 09:25:22;;;;;;;;;0.00;0.00;;;;;;;;5064215;28;27805;-95
2022/10/01 09:27:48;;;;;;;;;0.00;0.00;;;;;;;;5063543;28;27910;-96
2022/10/01 09:38:11;;;;;;;;;0.00;0.00;;;;;;;;5391049;22;28175;-96
2022/10/01 09:40:53;;;;;;;;;0.00;0.00;;;;;;;;5057869;28;29948;-96
2022/10/01 09:48:45;;;;;;;;;0.00;0.00;;;;;;;;5391365;22;27952;-96
2022/10/01 09:51:11;;;;;;;;;0.00;0.00;;;;;;;;5070402;22;28574;-95
2022/10/01 09:53:41;;;;;;;;;0.00;0.00;;;;;;;;5660101;22;28958;-96
2022/10/01 10:01:41;;;;;;;;;0.00;0.00;;;;;;;;5338371;22;29246;31
2022/10/01 10:07:01;;;;;;;;;0.00;0.00;;;;;;;;5746558;22;29210;-95
2022/10/01 10:09:31;;;;;;;;;0.00;0.00;;;;;;;;5033375;28;29529;-96
2022/10/01 10:11:57;;;;;;;;;0.00;0.00;;;;;;;;5016189;28;28586;-88
2022/10/01 10:14:37;;;;;;;;;0.00;0.00;;;;;;;;5023085;28;28526;-95
2022/10/01 10:17:06;;;;;;;;;0.00;0.00;;;;;;;;5014202;28;28382;-96
2022/10/01 10:19:32;;;;;;;;;0.00;0.00;;;;;;;;5016909;28;27925;-96
2022/10/01 10:22:11;;;;;;;;;0.00;0.00;;;;;;;;5020165;28;28446;-96
2022/10/01 10:24:36;;;;;;;;;0.00;0.00;;;;;;;;5016883;28;28742;-96
2022/10/01 10:27:05;;;;;;;;;0.00;0.00;;;;;;;;5034653;28;28356;-96
2022/10/01 10:29:34;;;;;;;;;0.00;0.00;;;;;;;;5011715;28;28478;-90
2022/10/01 10:32:05;;;;;;;;;0.00;0.00;;;;;;;;5010561;28;30096;-93
2022/10/01 10:34:38;;;;;;;;;0.00;0.00;;;;;;;;5015367;28;28467;-94
2022/10/01 10:37:09;;;;;;;;;0.00;0.00;;;;;;;;5008988;28;28583;-95
2022/10/01 10:39:39;;;;;;;;;0.00;0.00;;;;;;;;5016891;28;28509;-94
2022/10/01 10:42:04;;;;;;;;;0.00;0.00;;;;;;;;5009346;28;28509;-96
2022/10/01 10:44:35;;;;;;;;;0.00;0.00;;;;;;;;5002409;28;28743;-96
2022/10/01 10:47:02;;;;;;;;;0.00;0.00;;;;;;;;5006217;28;28073;-96
2022/10/01 10:49:30;;;;;;;;;0.00;0.00;;;;;;;;5000964;28;27829;-94
2022/10/01 10:51:59;;;;;;;;;0.00;0.00;;;;;;;;5023011;28;28542;-96
2022/10/01 10:54:32;;;;;;;;;0.00;0.00;;;;;;;;5011300;28;28352;-92
2022/10/01 10:57:01;;;;;;;;;0.00;0.00;;;;;;;;5013156;28;28547;-94
2022/10/01 10:59:31;;;;;;;;;0.00;0.00;;;;;;;;5019062;28;28560;-96
2022/10/01 11:01:56;;;;;;;;;0.00;0.00;;;;;;;;5005442;28;28486;-94
2022/10/01 11:04:41;;;;;;;;;0.00;0.00;;;;;;;;5011486;28;28426;-93
2022/10/01 11:07:08;;;;;;;;;0.00;0.00;;;;;;;;5009438;28;27914;-92
2022/10/01 11:09:45;;;;;;;;;0.00;0.00;;;;;;;;5029563;28;28536;-96
2022/10/01 11:12:23;;;;;;;;;0.00;0.00;;;;;;;;5026536;28;29488;-96
2022/10/01 11:14:54;;;;;;;;;0.00;0.00;;;;;;;;5026527;28;28424;-96
2022/10/01 11:17:22;;;;;;;;;0.00;0.00;;;;;;;;5030436;28;27918;-96
2022/10/01 11:19:54;;;;;;;;;0.00;0.00;;;;;;;;5029304;28;28305;-96
2022/10/01 11:22:28;;;;;;;;;0.00;0.00;;;;;;;;5012055;28;28438;-96
2022/10/01 11:25:13;;;;;;;;;0.00;0.00;;;;;;;;5020454;28;27946;-92
2022/10/01 11:27:57;;;;;;;;;0.00;0.00;;;;;;;;5007279;28;27801;-96
2022/10/01 11:30:31;;;;;;;;;0.00;0.00;;;;;;;;5016760;28;28245;-96
2022/10/01 11:33:05;;;;;;;;;0.00;0.00;;;;;;;;5025576;28;28371;-96
2022/10/01 11:35:32;;;;;;;;;0.00;0.00;;;;;;;;5023109;28;28713;-96
2022/10/01 11:38:10;;;;;;;;;0.00;0.00;;;;;;;;5024080;28;29113;-96
2022/10/01 11:40:42;;;;;;;;;0.00;0.00;;;;;;;;5023345;28;27943;-96
2022/10/01 11:43:13;;;;;;;;;0.00;0.00;;;;;;;;5019791;28;28539;-96
2022/10/01 11:45:41;;;;;;;;;0.00;0.00;;;;;;;;5020268;28;28535;-96
2022/10/01 11:48:12;;;;;;;;;0.00;0.00;;;;;;;;5028725;28;27821;-96
2022/10/01 11:50:41;;;;;;;;;0.00;0.00;;;;;;;;5017613;28;28356;-95
2022/10/01 11:53:11;;;;;;;;;0.00;0.00;;;;;;;;5015815;28;28799;-96
2022/10/01 12:01:19;;;;;;;;;0.00;0.00;;;;;;;;5017754;28;27836;-96
2022/10/01 12:03:52;;;;;;;;;0.00;0.00;;;;;;;;5025121;28;30126;-96
2022/10/01 12:06:30;;;;;;;;;0.00;0.00;;;;;;;;5007385;28;27910;-96
2022/10/01 12:09:06;;;;;;;;;0.00;0.00;;;;;;;;5020583;28;28499;-95
2022/10/01 12:11:38;;;;;;;;;0.00;0.00;;;;;;;;5007011;28;28480;-96
2022/10/01 12:14:09;;;;;;;;;0.00;0.00;;;;;;;;5011933;28;29289;-96
2022/10/01 12:16:34;;;;;;;;;0.00;0.00;;;;;;;;5031770;28;28770;-95
2022/10/01 12:19:09;;;;;;;;;0.00;0.00;;;;;;;;5012764;28;27868;-95
2022/10/01 12:21:50;;;;;;;;;0.00;0.00;;;;;;;;5015836;28;28532;-95
2022/10/01 12:24:18;;;;;;;;;0.00;0.00;;;;;;;;5010181;28;30287;-96
2022/10/01 12:26:50;;;;;;;;;0.00;0.00;;;;;;;;5038031;28;28359;-96
2022/10/01 12:29:15;;;;;;;;;0.00;0.00;;;;;;;;5012817;28;28558;-96
2022/10/01 12:31:46;;;;;;;;;0.00;0.00;;;;;;;;5021310;28;28646;-96
2022/10/01 12:34:21;;;;;;;;;0.00;0.00;;;;;;;;5026121;28;28578;-96
2022/10/01 12:37:14;;;;;;;;;0.00;0.00;;;;;;;;5023058;28;27809;-96
2022/10/01 12:39:39;;;;;;;;;0.00;0.00;;;;;;;;5022523;28;27853;-96
2022/10/01 12:42:24;;;;;;;;;0.00;0.00;;;;;;;;5021872;28;27920;-96
2022/10/01 12:44:52;;;;;;;;;0.00;0.00;;;;;;;;5025028;28;30198;-96
2022/10/01 12:47:19;;;;;;;;;0.00;0.00;;;;;;;;5013453;28;28520;-96
2022/10/01 12:50:07;;;;;;;;;0.00;0.00;;;;;;;;5021607;28;28456;-96
2022/10/01 12:52:41;;;;;;;;;0.00;0.00;;;;;;;;5015221;28;28297;-96
2022/10/01 12:55:29;;;;;;;;;1.50;0.50;;;;;;;;5016748;28;28477;-96
2022/10/01 12:58:02;;;;;;;;;0.00;0.00;;;;;;;;5017456;28;28523;-96
2022/10/01 13:00:33;;;;;;;;;0.00;0.00;;;;;;;;5021344;28;27782;-96
2022/10/01 13:02:58;;;;;;;;;0.00;0.00;;;;;;;;5030029;28;28455;-96
2022/10/01 13:05:47;;;;;;;;;0.00;0.00;;;;;;;;5022766;28;29393;-96
2022/10/01 13:08:15;;;;;;;;;0.00;0.00;;;;;;;;5021145;28;27801;-96
2022/10/01 13:10:50;;;;;;;;;0.00;0.00;;;;;;;;5019013;28;28661;-96
2022/10/01 13:13:20;;;;;;;;;0.00;0.00;;;;;;;;5011849;28;27829;-96
2022/10/01 13:15:48;;;;;;;;;0.00;0.00;;;;;;;;5019045;28;28250;-96
2022/10/01 13:18:22;;;;;;;;;0.00;0.00;;;;;;;;5033534;28;28892;-96
2022/10/01 13:20:53;;;;;;;;;0.00;0.00;;;;;;;;4996290;28;27926;-96
2022/10/01 13:23:27;;;;;;;;;0.00;0.00;;;;;;;;5009816;28;28589;-96
2022/10/01 13:26:11;;;;;;;;;0.00;0.00;;;;;;;;5007040;28;28735;-96
2022/10/01 13:28:51;;;;;;;;;0.00;0.00;;;;;;;;5020095;28;28333;-94
2022/10/01 13:31:20;;;;;;;;;0.00;0.00;;;;;;;;5011030;28;28655;-96
2022/10/01 13:34:08;;;;;;;;;0.00;0.00;;;;;;;;5003419;28;27925;-94
2022/10/01 13:36:34;;;;;;;;;0.00;0.00;;;;;;;;5008095;28;28577;-91
2022/10/01 13:38:59;;;;;;;;;0.00;0.00;;;;;;;;5008710;28;29744;-95
2022/10/01 13:41:26;;;;;;;;;0.00;0.00;;;;;;;;5007330;28;28416;-94
2022/10/01 13:43:58;;;;;;;;;0.00;0.00;;;;;;;;5000239;28;28837;-90
2022/10/01 13:46:29;;;;;;;;;0.00;0.00;;;;;;;;5008535;28;28733;-92
2022/10/01 13:48:56;;;;;;;;;0.00;0.00;;;;;;;;5009689;28;28792;-92
2022/10/01 13:51:32;;;;;;;;;0.00;0.00;;;;;;;;5003366;28;28520;-92
2022/10/01 13:53:59;;;;;;;;;0.00;0.00;;;;;;;;5006827;28;28524;-96
2022/10/01 13:56:29;;;;;;;;;0.00;0.00;;;;;;;;5000367;28;28858;-96
2022/10/01 13:58:55;;;;;;;;;0.00;0.00;;;;;;;;5008223;28;28491;-92
2022/10/01 14:01:20;;;;;;;;;0.00;0.00;;;;;;;;5001308;28;28716;-91
2022/10/01 14:03:56;;;;;;;;;0.00;0.00;;;;;;;;4997333;28;28531;-91
2022/10/01 14:06:25;;;;;;;;;1.00;1.00;;;;;;;;5004805;28;28732;-90
2022/10/01 14:09:02;;;;;;;;;0.00;0.00;;;;;;;;4998960;28;30143;-92
2022/10/01 14:17:04;;;;;;;;;0.00;0.00;;;;;;;;5007111;28;28511;-91
2022/10/01 14:19:30;;;;;;;;;0.00;0.00;;;;;;;;5003264;28;28757;-92
2022/10/01 14:22:13;;;;;;;;;0.00;0.00;;;;;;;;5003111;28;28526;-94
2022/10/01 14:24:57;;;;;;;;;0.00;0.00;;;;;;;;4999635;28;28633;-95
2022/10/01 14:27:22;;;;;;;;;0.00;0.00;;;;;;;;5021594;28;30427;-95
2022/10/01 14:30:00;;;;;;;;;0.00;0.00;;;;;;;;5001271;28;28421;-93
2022/10/01 14:32:32;;;;;;;;;0.00;0.00;;;;;;;;5020886;28;28566;-93
2022/10/01 14:35:18;;;;;;;;;0.00;0.00;;;;;;;;5003376;28;29293;-93
2022/10/01 14:37:43;;;;;;;;;0.00;0.00;;;;;;;;5005889;28;28321;-96
2022/10/01 14:40:14;;;;;;;;;0.00;0.00;;;;;;;;5006549;28;28663;-95
2022/10/01 14:42:39;;;;;;;;;0.00;0.00;;;;;;;;4999492;28;28328;-96
2022/10/01 14:45:14;;;;;;;;;0.00;0.00;;;;;;;;5005269;28;28484;-94
2022/10/01 14:47:40;;;;;;;;;0.00;0.00;;;;;;;;5033001;28;30092;-96
2022/10/01 14:50:09;;;;;;;;;0.00;0.00;;;;;;;;5004594;28;28837;-95
2022/10/01 14:52:35;;;;;;;;;0.00;0.00;;;;;;;;5031985;28;27892;-93
2022/10/01 14:55:02;;;;;;;;;0.00;0.00;;;;;;;;5013736;28;28468;-94
2022/10/01 14:57:42;;;;;;;;;0.00;0.00;;;;;;;;5016333;28;29947;-96
2022/10/01 15:00:12;;;;;;;;;0.00;0.00;;;;;;;;5016719;28;28970;-96
2022/10/01 15:02:45;;;;;;;;;0.00;0.00;;;;;;;;5007567;28;28375;-96
2022/10/01 15:05:30;;;;;;;;;0.00;0.00;;;;;;;;5017595;28;29642;-96
2022/10/01 15:07:56;;;;;;;;;0.00;0.00;;;;;;;;5034478;28;30183;-96
2022/10/01 15:10:24;;;;;;;;;1.00;0.00;;;;;;;;5014171;28;28424;-96
2022/10/01 15:12:51;;;;;;;;;0.00;0.00;;;;;;;;5013827;28;27808;-96
2022/10/01 15:15:22;;;;;;;;;0.00;0.00;;;;;;;;5021277;28;28048;-96
2022/10/01 15:17:48;;;;;;;;;0.00;0.00;;;;;;;;5038080;28;31478;-96
2022/10/01 15:20:14;;;;;;;;;0.00;0.00;;;;;;;;5013235;28;28507;-94
2022/10/01 15:22:42;;;;;;;;;0.00;0.00;;;;;;;;5020230;28;28656;-96
2022/10/01 15:25:15;;;;;;;;;0.00;0.00;;;;;;;;5015601;28;28466;-95
2022/10/01 15:27:43;;;;;;;;;0.00;0.00;;;;;;;;5016537;28;30245;-96
2022/10/01 15:30:12;;;;;;;;;0.00;0.00;;;;;;;;5010631;28;28615;-96
2022/10/01 15:32:38;;;;;;;;;0.00;0.00;;;;;;;;5006042;28;28518;-96
2022/10/01 15:35:03;;;;;;;;;0.00;0.00;;;;;;;;5007360;28;27869;-96
2022/10/01 15:37:30;;;;;;;;;0.00;0.00;;;;;;;;5043908;28;30260;-96
2022/10/01 15:39:57;;;;;;;;;0.00;0.00;;;;;;;;5018062;28;28325;-96
2022/10/01 15:42:27;;;;;;;;;0.00;0.00;;;;;;;;5004873;28;28457;-95
2022/10/01 15:45:19;;;;;;;;;0.00;0.00;;;;;;;;5015723;28;28372;-96
2022/10/01 15:47:50;;;;;;;;;0.00;0.00;;;;;;;;5020212;28;28324;-95
2022/10/01 15:50:17;;;;;;;;;0.00;0.00;;;;;;;;5009377;28;28274;-93
2022/10/01 15:53:00;;;;;;;;;0.00;0.00;;;;;;;;5032926;28;28370;-94
2022/10/01 15:55:26;;;;;;;;;0.00;0.00;;;;;;;;5035080;28;28191;-94
2022/10/01 15:57:55;;;;;;;;;0.00;0.00;;;;;;;;5015044;28;29951;-94
2022/10/01 16:00:21;;;;;;;;;0.00;0.00;;;;;;;;5016321;28;28562;-94
2022/10/01 16:02:47;;;;;;;;;0.00;0.00;;;;;;;;5018164;28;28562;-94
2022/10/01 16:05:16;;;;;;;;;0.00;0.00;;;;;;;;5016834;28;28041;-94
2022/10/01 16:07:45;;;;;;;;;0.00;0.00;;;;;;;;5015975;28;30195;-95
2022/10/01 16:10:24;;;;;;;;;0.00;0.00;;;;;;;;5008480;28;28765;-95
2022/10/01 16:12:50;;;;;;;;;0.00;0.00;;;;;;;;5013360;28;28450;-96
2022/10/01 16:15:25;;;;;;;;;0.00;0.00;;;;;;;;5012484;28;28534;-95
2022/10/01 16:18:01;;;;;;;;;0.00;0.00;;;;;;;;5027635;28;31502;-94
2022/10/01 16:20:32;;;;;;;;;0.00;0.00;;;;;;;;5012400;28;28443;-95
2022/10/01 16:23:16;;;;;;;;;0.00;0.00;;;;;;;;5010924;28;28598;-95
2022/10/01 16:25:47;;;;;;;;;0.00;0.00;;;;;;;;5012519;28;27865;-96
2022/10/01 16:28:38;;;;;;;;;0.00;0.00;;;;;;;;5015608;28;29460;-95
2022/10/01 16:31:03;;;;;;;;;0.00;0.00;;;;;;;;5004162;28;28383;-95
2022/10/01 16:33:28;;;;;;;;;0.00;0.00;;;;;;;;5011579;28;27879;-95
2022/10/01 16:36:07;;;;;;;;;0.00;0.00;;;;;;;;5013567;28;27967;-94
2022/10/01 16:38:32;;;;;;;;;0.00;0.00;;;;;;;;5032555;28;31117;-95
2022/10/01 16:40:57;;;;;;;;;0.00;0.00;;;;;;;;5007501;28;27820;-95
2022/10/01 16:43:23;;;;;;;;;0.00;0.00;;;;;;;;5003849;28;28629;-94
2022/10/01 16:45:48;;;;;;;;;0.00;0.00;;;;;;;;5001379;28;28541;-93
2022/10/01 16:48:15;;;;;;;;;0.00;0.00;;;;;;;;5008878;28;29983;-94
2022/10/01 16:50:41;;;;;;;;;0.00;0.00;;;;;;;;5025733;28;28838;-95
2022/10/01 16:53:10;;;;;;;;;0.00;0.00;;;;;;;;5004703;28;27913;-93
2022/10/01 16:55:36;;;;;;;;;0.00;0.00;;;;;;;;5008145;28;28352;-93
2022/10/01 16:58:03;;;;;;;;;0.00;0.00;;;;;;;;5035901;28;31277;-94
2022/10/01 17:00:28;;;;;;;;;0.00;0.00;;;;;;;;5007174;28;28675;-94
2022/10/01 17:02:54;;;;;;;;;0.00;0.00;;;;;;;;5004807;28;27996;-93
2022/10/01 17:05:21;;;;;;;;;0.00;0.00;;;;;;;;5007143;28;28662;-93
2022/10/01 17:07:46;;;;;;;;;0.00;0.00;;;;;;;;5030021;28;30172;-94
2022/10/01 17:10:12;;;;;;;;;0.00;0.00;;;;;;;;5021702;28;29430;-94
2022/10/01 17:12:38;;;;;;;;;0.00;0.00;;;;;;;;5008404;28;28416;-93
2022/10/01 17:15:04;;;;;;;;;0.00;0.00;;;;;;;;5017385;28;28671;-90
2022/10/01 17:17:30;;;;;;;;;0.00;0.00;;;;;;;;5004610;28;28588;-96
2022/10/01 17:19:55;;;;;;;;;0.00;0.00;;;;;;;;5326125;23;28057;-96
2022/10/01 17:22:21;;;;;;;;;0.00;0.00;;;;;;;;4998017;28;28463;-94
2022/10/01 17:24:46;;;;;;;;;0.00;0.00;;;;;;;;4998365;28;28314;-94
2022/10/01 17:27:11;;;;;;;;;0.00;0.00;;;;;;;;4993157;28;30699;-93
2022/10/01 17:29:37;;;;;;;;;0.00;0.00;;;;;;;;5011950;28;28735;-93
2022/10/01 17:32:03;;;;;;;;;0.00;0.00;;;;;;;;4997856;28;28594;-92
2022/10/01 17:34:28;;;;;;;;;0.00;0.00;;;;;;;;5002384;28;27957;-92
2022/10/01 17:36:53;;;;;;;;;0.00;0.00;;;;;;;;4993771;28;30028;-91
2022/10/01 17:39:18;;;;;;;;;0.00;0.00;;;;;;;;5006874;28;28506;-91
2022/10/01 17:41:43;;;;;;;;;0.00;0.00;;;;;;;;4990171;28;27921;-93
2022/10/01 17:44:08;;;;;;;;;0.00;0.00;;;;;;;;4993122;28;28492;-91
2022/10/01 17:46:34;;;;;;;;;0.00;0.00;;;;;;;;4987864;28;29729;-89
2022/10/01 17:48:59;;;;;;;;;0.00;0.00;;;;;;;;4983000;28;27865;-92
2022/10/01 17:51:24;;;;;;;;;0.00;0.00;;;;;;;;4986966;28;28400;-91
2022/10/01 17:53:50;;;;;;;;;0.00;0.00;;;;;;;;4992581;28;28404;-92
2022/10/01 17:56:16;;;;;;;;;0.00;0.00;;;;;;;;4987734;28;28456;-91
2022/10/01 17:58:42;;;;;;;;;0.00;0.00;;;;;;;;4989964;28;28355;-93
2022/10/01 18:01:08;;;;;;;;;0.00;0.00;;;;;;;;4983939;28;28448;-94
2022/10/01 18:03:34;;;;;;;;;0.00;0.00;;;;;;;;4976602;28;28493;-93
2022/10/01 18:06:03;;;;;;;;;0.00;0.00;;;;;;;;5000757;28;30032;-91
2022/10/01 18:08:28;;;;;;;;;0.00;0.00;;;;;;;;4986135;28;28558;-90
2022/10/01 18:11:04;;;;;;;;;0.00;0.00;;;;;;;;4988659;28;28499;-90
2022/10/01 18:13:29;;;;;;;;;0.00;0.00;;;;;;;;4980927;28;28591;-90
2022/10/01 18:15:59;;;;;;;;;0.00;0.00;;;;;;;;5000464;28;30068;-90
2022/10/01 18:18:24;;;;;;;;;0.00;0.00;;;;;;;;4988704;28;29980;-93
2022/10/01 18:20:49;;;;;;;;;0.00;0.00;;;;;;;;4991059;28;28532;-90
2022/10/01 18:23:14;;;;;;;;;0.00;0.00;;;;;;;;4988758;28;29712;-95
2022/10/01 18:25:39;;;;;;;;;0.00;0.00;;;;;;;;4992071;28;29839;-96
2022/10/01 18:28:04;;;;;;;;;0.00;0.00;;;;;;;;4986171;28;28650;-90
2022/10/01 18:30:30;;;;;;;;;0.00;0.00;;;;;;;;4987599;28;27893;-95
2022/10/01 18:32:55;;;;;;;;;0.00;0.00;;;;;;;;4990016;28;28594;-94
2022/10/01 18:35:30;;;;;;;;;0.00;0.00;;;;;;;;4978022;28;28691;-94
2022/10/01 18:37:58;;;;;;;;;0.00;0.00;;;;;;;;4983108;28;28918;-94
2022/10/01 18:40:28;;;;;;;;;0.00;0.00;;;;;;;;4988660;28;28531;-94
2022/10/01 18:42:57;;;;;;;;;0.00;0.00;;;;;;;;4998368;28;28397;-93
2022/10/01 18:45:41;;;;;;;;;0.00;0.00;;;;;;;;5010644;28;29816;-94
2022/10/01 18:48:25;;;;;;;;;0.00;0.00;;;;;;;;4996096;28;28568;-94
2022/10/01 18:51:05;;;;;;;;;0.00;0.00;;;;;;;;5013206;28;28725;-93
2022/10/01 18:53:35;;;;;;;;;0.00;0.00;;;;;;;;4994216;28;28597;-93
2022/10/01 18:56:03;;;;;;;;;0.00;0.00;;;;;;;;4987096;28;28477;-94
2022/10/01 18:58:47;;;;;;;;;0.00;0.00;;;;;;;;4997333;28;29974;-94
2022/10/01 19:01:32;;;;;;;;;0.00;0.00;;;;;;;;4991033;28;28401;-93
2022/10/01 19:04:13;;;;;;;;;0.00;0.00;;;;;;;;4997909;28;28757;-93
2022/10/01 19:06:38;;;;;;;;;0.00;0.00;;;;;;;;4983907;28;29258;-93
2022/10/01 19:09:06;;;;;;;;;0.00;0.00;;;;;;;;4983526;28;28479;-93
2022/10/01 19:11:31;;;;;;;;;0.00;0.00;;;;;;;;4990393;28;28548;-93
2022/10/01 19:14:00;;;;;;;;;0.00;0.00;;;;;;;;4989426;28;28518;-93
2022/10/01 19:16:28;;;;;;;;;0.00;0.00;;;;;;;;4989052;28;31563;-91
2022/10/01 19:19:05;;;;;;;;;0.00;0.00;;;;;;;;5002450;28;29456;-94
2022/10/01 19:21:36;;;;;;;;;0.00;0.00;;;;;;;;5004938;28;28565;-92
2022/10/01 19:24:07;;;;;;;;;0.00;0.00;;;;;;;;4988889;28;28749;-92
2022/10/01 19:26:43;;;;;;;;;0.00;0.00;;;;;;;;4984155;28;29847;-92
2022/10/01 19:29:11;;;;;;;;;0.00;0.00;;;;;;;;4985130;28;29615;-92
2022/10/01 19:32:00;;;;;;;;;0.00;0.00;;;;;;;;4986646;28;27946;-94
2022/10/01 19:34:38;;;;;;;;;0.00;0.00;;;;;;;;4981488;28;27948;-94
2022/10/01 19:37:06;;;;;;;;;0.00;0.00;;;;;;;;5002436;28;31400;-93
2022/10/01 19:39:36;;;;;;;;;0.00;0.00;;;;;;;;4985398;28;28558;-93
2022/10/01 19:42:07;;;;;;;;;0.00;0.00;;;;;;;;4990299;28;33328;-94
2022/10/01 19:44:38;;;;;;;;;0.00;0.00;;;;;;;;4988852;28;28658;-94
2022/10/01 19:47:13;;;;;;;;;0.00;0.00;;;;;;;;5000261;28;31350;-92
2022/10/01 19:50:14;;;;;;;;;0.00;0.00;;;;;;;;4993972;28;29595;-95
2022/10/01 19:52:58;;;;;;;;;0.00;0.00;;;;;;;;5003749;28;28397;-96
2022/10/01 19:55:33;;;;;;;;;0.00;0.00;;;;;;;;4993937;28;28502;-96
2022/10/01 20:01:24;;;;;;;;;;;;;;;;;;;;;
2022/10/01 20:04:50;;;;;;;;;;;;;;;;;;;;;
2022/10/01 20:08:28;;;;;;;;;0.00;0.00;;;;;;;;4969786;28;55430;-95
2022/10/01 20:11:09;;;;;;;;;0.00;0.00;;;;;;;;4974492;28;28751;-95
2022/10/01 20:15:07;;;;;;;;;0.00;0.00;;;;;;;;4992892;28;28670;-95
2022/10/01 20:17:14;;;;;;;;;;;;;;;;;;;;;
2022/10/01 20:19:49;;;;;;;;;0.00;0.00;;;;;;;;5000979;28;55347;-96
2022/10/01 20:22:32;;;;;;;;;0.00;0.00;;;;;;;;4999479;28;30157;-95
2022/10/01 20:25:24;;;;;;;;;0.00;0.00;;;;;;;;5002127;28;29356;-96
2022/10/01 20:28:15;;;;;;;;;0.00;0.00;;;;;;;;4996175;28;28314;-95
2022/10/01 20:31:08;;;;;;;;;;;;;;;;;;;;;
2022/10/01 20:33:48;;;;;;;;;0.00;0.00;;;;;;;;4981696;28;56771;-95
2022/10/01 20:36:28;;;;;;;;;0.00;0.00;;;;;;;;4991443;28;29127;-94
2022/10/01 20:39:03;;;;;;;;;0.00;0.00;;;;;;;;4975326;28;28608;-95
2022/10/01 20:41:48;;;;;;;;;0.00;0.00;;;;;;;;4974504;28;28480;-95
2022/10/01 20:44:16;;;;;;;;;0.00;0.00;;;;;;;;4990963;28;28533;-95
2022/10/01 20:47:04;;;;;;;;;0.00;0.00;;;;;;;;4991406;28;29069;-96
2022/10/01 20:49:42;;;;;;;;;0.00;0.00;;;;;;;;4979177;28;27906;-95
2022/10/01 20:52:20;;;;;;;;;0.00;0.00;;;;;;;;4974733;28;28461;-94
2022/10/01 20:54:50;;;;;;;;;0.00;0.00;;;;;;;;4990931;28;29981;-95
2022/10/01 20:57:20;;;;;;;;;0.00;0.00;;;;;;;;4992753;28;28963;-94
2022/10/01 20:59:56;;;;;;;;;0.00;0.00;;;;;;;;4994018;28;28613;-96
2022/10/01 21:02:34;;;;;;;;;0.00;0.00;;;;;;;;5011168;28;28495;-96
2022/10/01 21:08:07;;;;;;;;;0.00;0.00;;;;;;;;4995306;28;28432;-94
2022/10/01 21:10:41;;;;;;;;;0.00;0.00;;;;;;;;4994093;28;28563;-95
2022/10/01 21:30:28;;;;;;;;;0.00;0.00;;;;;;;;4804677;29;28525;-96
2022/10/01 21:36:15;;;;;;;;;0.00;0.00;;;;;;;;4813318;29;28427;-96
2022/10/01 21:39:13;;;;;;;;;0.00;0.00;;;;;;;;4839736;29;28575;-96
2022/10/01 21:41:50;;;;;;;;;0.00;0.00;;;;;;;;4859059;29;29829;-96
2022/10/01 21:44:34;;;;;;;;;0.00;0.00;;;;;;;;4863605;29;28963;-93
2022/10/01 21:47:22;;;;;;;;;0.00;0.00;;;;;;;;4863019;29;28572;-95
2022/10/01 21:50:04;;;;;;;;;0.00;0.00;;;;;;;;4867768;29;28034;-95
2022/10/01 21:52:45;;;;;;;;;0.00;0.00;;;;;;;;4868240;29;30143;-95
2022/10/01 21:55:28;;;;;;;;;0.00;0.00;;;;;;;;4882333;29;29081;-95
2022/10/01 21:57:57;;;;;;;;;0.00;0.00;;;;;;;;4901215;29;28553;-94
2022/10/01 22:00:25;;;;;;;;;0.00;0.00;;;;;;;;4900051;29;27987;-95
2022/10/01 22:03:08;;;;;;;;;0.00;0.00;;;;;;;;4888928;29;30322;-95
2022/10/01 22:05:39;;;;;;;;;0.00;0.00;;;;;;;;4881812;29;28698;-96
2022/10/01 22:08:21;;;;;;;;;0.00;0.00;;;;;;;;4892158;29;28458;-96
2022/10/01 22:10:52;;;;;;;;;0.00;0.00;;;;;;;;4900877;29;28608;-95
2022/10/01 22:13:20;;;;;;;;;0.00;0.00;;;;;;;;4901026;29;30573;-94
2022/10/01 22:15:47;;;;;;;;;0.00;0.00;;;;;;;;4900930;29;29085;-94
2022/10/01 22:18:45;;;;;;;;;0.00;0.00;;;;;;;;4984196;28;28559;-94
2022/10/01 22:21:12;;;;;;;;;0.00;0.00;;;;;;;;4919432;28;28750;-95
2022/10/01 22:23:42;;;;;;;;;0.00;0.00;;;;;;;;4919123;28;30442;-96
2022/10/01 22:26:15;;;;;;;;;0.00;0.00;;;;;;;;4919260;28;28739;-95
2022/10/01 22:28:46;;;;;;;;;0.00;0.00;;;;;;;;4919063;28;28431;-95